createdAt,value
2023-02-07T00:00:06.648Z,103453.34
2023-02-07T00:02:42.808Z,103449.84
2023-02-07T00:05:11.983Z,103455.09
2023-02-07T00:07:39.936Z,103449.00
2023-02-07T00:10:10.045Z,103459.47
2023-02-07T00:12:38.763Z,103455.97
2023-02-07T00:15:07.881Z,103445.50
2023-02-07T00:17:35.687Z,103442.88
2023-02-07T00:20:03.895Z,103435.91
2023-02-07T00:22:33.746Z,103441.16
2023-02-07T00:25:02.407Z,103431.56
2023-02-07T00:27:30.110Z,103428.09
2023-02-07T00:29:57.980Z,103414.16
2023-02-07T00:32:25.632Z,103396.72
2023-02-07T00:34:53.322Z,103407.16
2023-02-07T00:37:20.925Z,103401.94
2023-02-07T00:39:50.421Z,103396.72
2023-02-07T00:42:18.361Z,103394.97
2023-02-07T00:44:46.007Z,103400.19
2023-02-07T00:47:13.608Z,103401.06
2023-02-07T00:49:41.293Z,103397.59
2023-02-07T00:52:09.575Z,103394.06
2023-02-07T00:54:38.884Z,103401.03
2023-02-07T00:57:07.783Z,103399.31
2023-02-07T00:59:37.316Z,103392.34
2023-02-07T01:02:04.949Z,103396.69
2023-02-07T01:04:36.929Z,103387.09
2023-02-07T01:07:04.833Z,103386.25
2023-02-07T01:09:33.498Z,103389.72
2023-02-07T01:12:01.298Z,103395.84
2023-02-07T01:14:30.233Z,103394.06
2023-02-07T01:16:57.992Z,103399.31
2023-02-07T01:19:25.599Z,103401.94
2023-02-07T01:21:53.317Z,103413.22
2023-02-07T01:24:22.763Z,103411.50
2023-02-07T01:26:51.456Z,103412.38
2023-02-07T01:29:19.218Z,103414.97
2023-02-07T01:31:48.305Z,103419.31
2023-02-07T01:34:17.762Z,103421.91
2023-02-07T01:36:45.406Z,103416.66
2023-02-07T01:39:13.338Z,103414.94
2023-02-07T01:41:43.856Z,103423.66
2023-02-07T01:44:45.385Z,103419.28
2023-02-07T01:47:18.925Z,103420.16
2023-02-07T01:49:48.821Z,103431.44
2023-02-07T01:52:20.566Z,103424.47
2023-02-07T01:54:52.123Z,103425.31
2023-02-07T01:57:23.861Z,103420.97
2023-02-07T01:59:58.234Z,103428.81
2023-02-07T02:02:31.812Z,103429.69
2023-02-07T02:05:00.400Z,103419.22
2023-02-07T02:07:32.799Z,103420.09
2023-02-07T02:10:00.865Z,103414.88
2023-02-07T02:12:55.527Z,103413.13
2023-02-07T02:15:38.217Z,103413.97
2023-02-07T02:18:27.719Z,103408.75
2023-02-07T02:21:37.859Z,103404.38
2023-02-07T02:24:25.399Z,103403.50
2023-02-07T02:26:59.436Z,103403.50
2023-02-07T02:30:07.904Z,103409.56
2023-02-07T02:33:09.859Z,103405.19
2023-02-07T02:35:52.818Z,103390.41
2023-02-07T02:38:56.401Z,103381.72
2023-02-07T02:41:54.736Z,103388.66
2023-02-07T02:44:31.111Z,103389.50
2023-02-07T02:47:04.768Z,103390.38
2023-02-07T02:49:36.740Z,103382.56
2023-02-07T02:52:05.957Z,103386.91
2023-02-07T02:54:41.778Z,103382.53
2023-02-07T02:57:43.833Z,103377.31
2023-02-07T03:00:43.748Z,103387.72
2023-02-07T03:03:30.685Z,103386.84
2023-02-07T03:06:10.612Z,103389.47
2023-02-07T03:09:09.841Z,103388.56
2023-02-07T03:11:47.447Z,103397.25
2023-02-07T03:14:25.841Z,103394.66
2023-02-07T03:17:05.607Z,103393.75
2023-02-07T03:19:40.850Z,103395.50
2023-02-07T03:22:13.366Z,103395.50
2023-02-07T03:24:46.679Z,103398.09
2023-02-07T03:27:17.734Z,103399.81
2023-02-07T03:29:48.943Z,103398.06
2023-02-07T03:32:20.759Z,103389.38
2023-02-07T03:34:54.333Z,103394.59
2023-02-07T03:37:27.315Z,103388.50
2023-02-07T03:39:55.196Z,103393.72
2023-02-07T03:42:28.797Z,103401.50
2023-02-07T03:44:58.858Z,103403.25
2023-02-07T03:47:29.283Z,103390.16
2023-02-07T03:50:21.826Z,103384.94
2023-02-07T03:52:54.526Z,103386.69
2023-02-07T03:55:22.937Z,103386.69
2023-02-07T03:57:52.301Z,103381.44
2023-02-07T04:00:22.371Z,103367.53
2023-02-07T04:02:50.155Z,103368.41
2023-02-07T04:05:18.742Z,103369.22
2023-02-07T04:07:47.871Z,103368.38
2023-02-07T04:11:05.778Z,103376.19
2023-02-07T04:13:34.711Z,103374.44
2023-02-07T04:16:04.926Z,103370.94
2023-02-07T04:18:32.558Z,103372.63
2023-02-07T04:21:04.799Z,103371.81
2023-02-07T04:26:25.393Z,103370.91
2023-02-07T04:28:54.750Z,103373.50
2023-02-07T04:31:25.427Z,103380.44
2023-02-07T04:33:53.025Z,103370.03
2023-02-07T04:36:22.625Z,103369.16
2023-02-07T04:38:51.837Z,103372.63
2023-02-07T04:41:21.770Z,103369.97
2023-02-07T04:43:51.747Z,103373.47
2023-02-07T04:46:23.719Z,103369.13
2023-02-07T04:48:53.768Z,103369.94
2023-02-07T04:51:23.836Z,103366.47
2023-02-07T04:53:53.252Z,103363.84
2023-02-07T04:56:21.313Z,103374.28
2023-02-07T04:59:14.149Z,103370.78
2023-02-07T05:01:43.478Z,103378.56
2023-02-07T05:04:11.287Z,103373.34
2023-02-07T05:06:42.752Z,103367.25
2023-02-07T05:09:10.855Z,103378.50
2023-02-07T05:12:04.252Z,103379.38
2023-02-07T05:14:33.309Z,103375.88
2023-02-07T05:17:03.738Z,103375.84
2023-02-07T05:19:34.729Z,103379.31
2023-02-07T05:22:02.272Z,103376.72
2023-02-07T05:24:29.877Z,103375.81
2023-02-07T05:26:58.477Z,103381.03
2023-02-07T05:29:26.430Z,103381.00
2023-02-07T05:32:11.845Z,103385.34
2023-02-07T05:34:40.937Z,103390.50
2023-02-07T05:37:08.539Z,103387.91
2023-02-07T05:39:36.283Z,103390.50
2023-02-07T05:42:04.004Z,103402.66
2023-02-07T05:44:31.571Z,103406.09
2023-02-07T05:46:59.144Z,103413.91
2023-02-07T05:49:28.753Z,103408.69
2023-02-07T05:51:57.843Z,103402.59
2023-02-07T05:54:51.768Z,103415.63
2023-02-07T05:57:22.885Z,103410.38
2023-02-07T05:59:51.266Z,103420.78
2023-02-07T06:02:19.772Z,103417.31
2023-02-07T06:04:48.251Z,103415.53
2023-02-07T06:07:17.151Z,103412.91
2023-02-07T06:09:44.845Z,103414.66
2023-02-07T06:12:12.755Z,103414.63
2023-02-07T06:14:43.848Z,103418.94
2023-02-07T06:17:13.742Z,103422.41
2023-02-07T06:19:41.336Z,103419.78
2023-02-07T06:22:10.779Z,103422.34
2023-02-07T06:24:39.819Z,103425.81
2023-02-07T06:27:11.340Z,103411.91
2023-02-07T06:29:38.936Z,103421.47
2023-02-07T06:32:07.741Z,103424.06
2023-02-07T06:34:36.273Z,103433.56
2023-02-07T06:37:03.935Z,103437.03
2023-02-07T06:39:31.841Z,103443.97
2023-02-07T06:42:26.291Z,103448.25
2023-02-07T06:44:54.845Z,103449.13
2023-02-07T06:47:26.766Z,103442.13
2023-02-07T06:49:55.227Z,103443.03
2023-02-07T06:52:23.753Z,103449.06
2023-02-07T06:54:52.877Z,103447.31
2023-02-07T06:57:20.532Z,103451.66
2023-02-07T06:59:49.548Z,103450.78
2023-02-07T07:02:17.346Z,103453.38
2023-02-07T07:04:45.437Z,103452.44
2023-02-07T07:07:13.737Z,103452.44
2023-02-07T07:09:41.354Z,103450.72
2023-02-07T07:12:09.477Z,103445.47
2023-02-07T07:14:37.037Z,103441.97
2023-02-07T07:17:06.758Z,103444.56
2023-02-07T07:19:35.767Z,103449.78
2023-02-07T07:22:05.836Z,103447.16
2023-02-07T07:24:33.452Z,103452.38
2023-02-07T07:27:01.464Z,103457.59
2023-02-07T07:29:29.090Z,103454.97
2023-02-07T07:31:56.765Z,103459.31
2023-02-07T07:34:26.636Z,103445.44
2023-02-07T07:36:56.752Z,103446.31
2023-02-07T07:39:30.224Z,103443.78
2023-02-07T07:41:59.735Z,103453.38
2023-02-07T07:44:45.983Z,103452.53
2023-02-07T07:47:13.741Z,103455.19
2023-02-07T07:49:44.841Z,103470.03
2023-02-07T07:52:12.466Z,103466.56
2023-02-07T07:54:40.260Z,103466.59
2023-02-07T07:57:07.809Z,103474.44
2023-02-07T07:59:36.192Z,103477.03
2023-02-07T08:02:05.352Z,103469.22
2023-02-07T08:04:33.072Z,103472.69
2023-02-07T08:07:03.412Z,103480.56
2023-02-07T08:09:55.778Z,103464.94
2023-02-07T08:12:48.920Z,103457.19
2023-02-07T08:15:43.754Z,103454.84
2023-02-07T08:18:12.332Z,103448.00
2023-02-07T08:20:40.247Z,103448.09
2023-02-07T08:23:09.740Z,103444.72
2023-02-07T08:25:38.217Z,103454.41
2023-02-07T08:28:05.995Z,103454.50
2023-02-07T08:30:33.864Z,103459.81
2023-02-07T08:33:02.887Z,103450.31
2023-02-07T08:35:30.775Z,103451.25
2023-02-07T08:37:59.007Z,103450.44
2023-02-07T08:40:28.619Z,103453.13
2023-02-07T08:42:56.279Z,103457.53
2023-02-07T08:45:24.302Z,103454.91
2023-02-07T08:47:54.739Z,103453.19
2023-02-07T08:50:22.564Z,103456.72
2023-02-07T08:52:50.175Z,103454.97
2023-02-07T08:55:17.939Z,103461.06
2023-02-07T08:57:47.602Z,103461.06
2023-02-07T09:00:16.581Z,103465.44
2023-02-07T09:02:47.893Z,103455.00
2023-02-07T09:05:15.706Z,103454.16
2023-02-07T09:07:43.812Z,103467.22
2023-02-07T09:10:13.249Z,103463.72
2023-02-07T09:12:40.872Z,103459.38
2023-02-07T09:15:11.110Z,103454.19
2023-02-07T09:17:38.851Z,103455.06
2023-02-07T09:20:07.174Z,103456.81
2023-02-07T09:22:55.892Z,103453.34
2023-02-07T09:25:23.608Z,103459.44
2023-02-07T09:27:51.856Z,103461.22
2023-02-07T09:30:21.133Z,103449.88
2023-02-07T09:32:48.708Z,103450.75
2023-02-07T09:35:18.727Z,103453.38
2023-02-07T09:37:49.726Z,103448.16
2023-02-07T09:40:19.832Z,103452.50
2023-02-07T09:43:00.010Z,103456.84
2023-02-07T09:45:59.771Z,103460.34
2023-02-07T09:48:38.370Z,103462.97
2023-02-07T09:51:08.063Z,103456.00
2023-02-07T09:53:41.814Z,103455.13
2023-02-07T09:56:13.750Z,103457.72
2023-02-07T09:58:45.626Z,103460.34
2023-02-07T10:01:16.425Z,103453.34
2023-02-07T10:03:53.888Z,103459.44
2023-02-07T10:06:27.028Z,103453.31
2023-02-07T10:09:01.724Z,103453.31
2023-02-07T10:11:44.175Z,103463.75
2023-02-07T10:14:38.838Z,103453.25
2023-02-07T10:17:31.383Z,103462.78
2023-02-07T10:20:14.763Z,103457.53
2023-02-07T10:22:55.390Z,103464.44
2023-02-07T10:25:36.869Z,103450.44
2023-02-07T10:28:28.564Z,103453.88
2023-02-07T10:31:02.896Z,103456.47
2023-02-07T10:33:34.219Z,103457.22
2023-02-07T10:36:06.864Z,103457.09
2023-02-07T10:38:43.388Z,103452.72
2023-02-07T10:41:16.841Z,103453.53
2023-02-07T10:43:51.714Z,103452.59
2023-02-07T10:46:24.745Z,103457.81
2023-02-07T10:48:54.835Z,103456.88
2023-02-07T10:51:30.628Z,103457.72
2023-02-07T10:54:07.545Z,103455.13
2023-02-07T10:56:40.076Z,103457.69
2023-02-07T10:59:32.649Z,103452.44
2023-02-07T11:02:01.478Z,103457.72
2023-02-07T11:04:38.891Z,103451.47
2023-02-07T11:07:08.638Z,103453.19
2023-02-07T11:09:37.701Z,103462.75
2023-02-07T11:12:16.147Z,103449.63
2023-02-07T11:15:02.311Z,103440.91
2023-02-07T11:17:31.747Z,103441.75
2023-02-07T11:20:05.415Z,103439.06
2023-02-07T11:22:35.732Z,103438.13
2023-02-07T11:25:06.286Z,103448.63
2023-02-07T11:27:40.305Z,103442.47
2023-02-07T11:30:15.554Z,103446.00
2023-02-07T11:32:45.201Z,103437.22
2023-02-07T11:35:41.792Z,103430.97
2023-02-07T11:38:18.750Z,103423.97
2023-02-07T11:40:50.508Z,103428.41
2023-02-07T11:43:20.135Z,103425.78
2023-02-07T11:45:51.004Z,103431.78
2023-02-07T11:48:21.847Z,103429.03
2023-02-07T11:50:55.811Z,103426.56
2023-02-07T11:53:51.656Z,103423.03
2023-02-07T11:56:25.720Z,103425.69
2023-02-07T11:58:55.540Z,103419.59
2023-02-07T12:01:27.311Z,103415.97
2023-02-07T12:04:00.887Z,103417.69
2023-02-07T12:06:36.194Z,103411.44
2023-02-07T12:09:22.091Z,103412.22
2023-02-07T12:11:51.974Z,103413.03
2023-02-07T12:14:28.689Z,103407.88
2023-02-07T12:17:01.681Z,103405.31
2023-02-07T12:19:58.935Z,103403.50
2023-02-07T12:22:38.570Z,103393.84
2023-02-07T12:25:22.740Z,103397.34
2023-02-07T12:27:56.236Z,103394.63
2023-02-07T12:30:33.333Z,103391.19
2023-02-07T12:33:10.092Z,103382.38
2023-02-07T12:35:55.602Z,103389.38
2023-02-07T12:38:29.695Z,103392.88
2023-02-07T12:41:02.741Z,103385.88
2023-02-07T12:43:33.882Z,103390.19
2023-02-07T12:46:10.905Z,103389.38
2023-02-07T12:48:55.911Z,103392.03
2023-02-07T12:51:56.644Z,103386.69
2023-02-07T12:54:39.743Z,103386.63
2023-02-07T12:57:15.016Z,103374.41
2023-02-07T12:59:57.213Z,103373.41
2023-02-07T13:02:36.675Z,103371.72
2023-02-07T13:05:46.944Z,103372.41
2023-02-07T13:08:27.085Z,103367.78
2023-02-07T13:11:04.548Z,103364.28
2023-02-07T13:13:36.629Z,103363.41
2023-02-07T13:16:11.763Z,103364.28
2023-02-07T13:18:47.330Z,103362.50
2023-02-07T13:21:22.509Z,103363.31
2023-02-07T13:23:51.256Z,103360.56
2023-02-07T13:26:24.884Z,103363.22
2023-02-07T13:28:56.548Z,103364.13
2023-02-07T13:31:30.439Z,103361.47
2023-02-07T13:33:58.359Z,103354.38
2023-02-07T13:36:32.824Z,103356.16
2023-02-07T13:39:13.739Z,103345.56
2023-02-07T13:41:58.834Z,103355.06
2023-02-07T13:44:38.734Z,103356.88
2023-02-07T13:47:58.869Z,103362.09
2023-02-07T13:50:41.936Z,103352.47
2023-02-07T13:53:23.717Z,103356.88
2023-02-07T13:55:52.788Z,103354.34
2023-02-07T13:59:11.746Z,103362.88
2023-02-07T14:01:50.201Z,103366.41
2023-02-07T14:04:19.334Z,103369.13
2023-02-07T14:06:58.360Z,103367.31
2023-02-07T14:09:34.916Z,103363.72
2023-02-07T14:12:05.346Z,103357.47
2023-02-07T14:14:36.730Z,103353.03
2023-02-07T14:17:13.603Z,103345.34
2023-02-07T14:19:53.556Z,103356.75
2023-02-07T14:22:24.620Z,103356.72
2023-02-07T14:25:19.617Z,103347.19
2023-02-07T14:28:13.789Z,103344.47
2023-02-07T14:30:59.921Z,103348.84
2023-02-07T14:33:34.589Z,103348.03
2023-02-07T14:36:19.546Z,103341.84
2023-02-07T14:39:07.023Z,103337.34
2023-02-07T14:41:37.234Z,103341.81
2023-02-07T14:44:35.688Z,103344.53
2023-02-07T14:47:31.407Z,103342.81
2023-02-07T14:50:01.731Z,103337.56
2023-02-07T14:52:32.028Z,103334.97
2023-02-07T14:55:02.855Z,103338.34
2023-02-07T14:58:00.738Z,103348.03
2023-02-07T15:00:33.862Z,103354.19
2023-02-07T15:03:33.944Z,103344.56
2023-02-07T15:06:05.079Z,103341.06
2023-02-07T15:08:58.777Z,103350.69
2023-02-07T15:11:28.712Z,103349.00
2023-02-07T15:13:59.771Z,103349.91
2023-02-07T15:16:30.503Z,103349.09
2023-02-07T15:19:03.842Z,103352.66
2023-02-07T15:21:35.084Z,103348.28
2023-02-07T15:24:06.266Z,103350.94
2023-02-07T15:26:35.524Z,103342.28
2023-02-07T15:29:06.511Z,103349.34
2023-02-07T15:31:39.951Z,103343.28
2023-02-07T15:34:35.423Z,103346.88
2023-02-07T15:37:14.857Z,103348.66
2023-02-07T15:39:42.593Z,103342.63
2023-02-07T15:42:17.679Z,103347.88
2023-02-07T15:44:51.819Z,103342.66
2023-02-07T15:47:39.191Z,103351.44
2023-02-07T15:50:22.731Z,103347.16
2023-02-07T15:52:52.842Z,103350.72
2023-02-07T15:55:28.454Z,103356.03
2023-02-07T15:57:57.073Z,103348.16
2023-02-07T16:00:28.081Z,103344.66
2023-02-07T16:03:00.790Z,103335.09
2023-02-07T16:05:37.438Z,103338.66
2023-02-07T16:08:07.186Z,103340.44
2023-02-07T16:10:38.556Z,103339.63
2023-02-07T16:13:18.951Z,103346.72
2023-02-07T16:15:56.144Z,103342.38
2023-02-07T16:19:02.686Z,103342.44
2023-02-07T16:21:32.843Z,103339.97
2023-02-07T16:24:07.774Z,103340.06
2023-02-07T16:26:39.360Z,103346.25
2023-02-07T16:29:07.243Z,103350.72
2023-02-07T16:31:35.582Z,103355.13
2023-02-07T16:34:03.276Z,103360.50
2023-02-07T16:36:32.282Z,103354.41
2023-02-07T16:38:59.866Z,103361.50
2023-02-07T16:41:32.116Z,103360.66
2023-02-07T16:44:01.851Z,103362.53
2023-02-07T16:46:29.822Z,103361.72
2023-02-07T16:48:57.747Z,103367.00
2023-02-07T16:51:25.421Z,103365.34
2023-02-07T16:53:54.687Z,103369.75
2023-02-07T16:56:25.845Z,103367.19
2023-02-07T16:58:54.632Z,103373.38
2023-02-07T17:01:23.478Z,103367.28
2023-02-07T17:03:52.299Z,103365.56
2023-02-07T17:06:24.745Z,103363.91
2023-02-07T17:08:56.326Z,103362.16
2023-02-07T17:11:26.018Z,103356.97
2023-02-07T17:14:19.621Z,103361.38
2023-02-07T17:16:47.616Z,103365.78
2023-02-07T17:19:18.909Z,103358.84
2023-02-07T17:21:47.054Z,103360.63
2023-02-07T17:24:16.324Z,103370.25
2023-02-07T17:26:50.043Z,103361.53
2023-02-07T17:29:18.944Z,103365.94
2023-02-07T17:31:47.198Z,103364.22
2023-02-07T17:34:14.901Z,103365.09
2023-02-07T17:36:47.839Z,103371.25
2023-02-07T17:39:17.778Z,103366.88
2023-02-07T17:41:45.679Z,103367.78
2023-02-07T17:44:14.290Z,103362.53
2023-02-07T17:46:43.709Z,103367.78
2023-02-07T17:49:14.932Z,103371.31
2023-02-07T17:51:42.827Z,103369.56
2023-02-07T17:54:10.516Z,103369.56
2023-02-07T17:56:39.752Z,103375.72
2023-02-07T17:59:09.980Z,103373.09
2023-02-07T18:01:37.738Z,103368.72
2023-02-07T18:04:05.657Z,103367.03
2023-02-07T18:06:34.719Z,103360.03
2023-02-07T18:09:03.141Z,103367.91
2023-02-07T18:11:31.174Z,103368.75
2023-02-07T18:14:01.746Z,103369.66
2023-02-07T18:16:32.750Z,103368.78
2023-02-07T18:19:00.357Z,103366.16
2023-02-07T18:21:28.187Z,103368.81
2023-02-07T18:23:56.428Z,103365.31
2023-02-07T18:26:24.502Z,103362.69
2023-02-07T18:28:53.333Z,103361.84
2023-02-07T18:31:25.097Z,103362.72
2023-02-07T18:33:54.345Z,103360.97
2023-02-07T18:36:26.550Z,103360.13
2023-02-07T18:38:54.197Z,103358.38
2023-02-07T18:41:23.899Z,103366.19
2023-02-07T18:43:51.553Z,103362.72
2023-02-07T18:46:22.178Z,103357.50
2023-02-07T18:48:54.820Z,103353.13
2023-02-07T18:51:23.201Z,103355.75
2023-02-07T18:53:51.673Z,103355.75
2023-02-07T18:56:23.773Z,103351.38
2023-02-07T18:58:52.738Z,103357.50
2023-02-07T19:01:24.866Z,103359.25
2023-02-07T19:03:56.112Z,103356.59
2023-02-07T19:06:26.338Z,103354.00
2023-02-07T19:08:54.500Z,103357.50
2023-02-07T19:11:22.318Z,103357.47
2023-02-07T19:13:49.925Z,103355.75
2023-02-07T19:16:19.833Z,103353.16
2023-02-07T19:18:50.895Z,103358.38
2023-02-07T19:21:23.565Z,103361.84
2023-02-07T19:23:51.189Z,103363.59
2023-02-07T19:26:18.880Z,103363.56
2023-02-07T19:28:46.753Z,103363.56
2023-02-07T19:31:18.266Z,103359.22
2023-02-07T19:33:46.190Z,103354.00
2023-02-07T19:36:16.755Z,103357.50
2023-02-07T19:38:46.510Z,103364.44
2023-02-07T19:41:14.161Z,103362.72
2023-02-07T19:43:42.570Z,103356.63
2023-02-07T19:46:10.386Z,103344.41
2023-02-07T19:48:38.049Z,103358.34
2023-02-07T19:51:08.885Z,103356.59
2023-02-07T19:53:37.866Z,103353.97
2023-02-07T19:56:09.410Z,103356.59
2023-02-07T19:58:39.725Z,103360.97
2023-02-07T20:01:07.717Z,103358.34
2023-02-07T20:03:37.207Z,103360.09
2023-02-07T20:06:08.572Z,103353.09
2023-02-07T20:08:41.741Z,103356.59
2023-02-07T20:11:11.441Z,103349.63
2023-02-07T20:13:40.731Z,103355.72
2023-02-07T20:16:11.772Z,103339.16
2023-02-07T20:18:40.795Z,103344.38
2023-02-07T20:21:11.750Z,103341.75
2023-02-07T20:23:42.023Z,103344.38
2023-02-07T20:26:13.719Z,103347.00
2023-02-07T20:28:43.211Z,103343.50
2023-02-07T20:31:13.075Z,103344.38
2023-02-07T20:33:43.884Z,103338.28
2023-02-07T20:36:13.714Z,103343.50
2023-02-07T20:38:44.962Z,103345.25
2023-02-07T20:41:15.856Z,103346.97
2023-02-07T20:43:47.438Z,103340.88
2023-02-07T20:46:17.196Z,103343.47
2023-02-07T20:48:45.133Z,103340.88
2023-02-07T20:51:12.694Z,103340.00
2023-02-07T20:53:41.461Z,103340.88
2023-02-07T20:56:13.199Z,103347.81
2023-02-07T20:58:41.729Z,103345.19
2023-02-07T21:01:13.768Z,103345.19
2023-02-07T21:03:41.811Z,103351.28
2023-02-07T21:06:11.250Z,103355.66
2023-02-07T21:08:40.464Z,103348.66
2023-02-07T21:11:09.618Z,103356.50
2023-02-07T21:13:39.747Z,103353.03
2023-02-07T21:16:08.688Z,103351.25
2023-02-07T21:18:37.853Z,103349.50
2023-02-07T21:21:07.897Z,103349.50
2023-02-07T21:23:36.269Z,103351.22
2023-02-07T21:26:05.314Z,103351.22
2023-02-07T21:28:33.259Z,103348.63
2023-02-07T21:31:06.911Z,103346.88
2023-02-07T21:33:34.846Z,103340.75
2023-02-07T21:36:07.895Z,103341.63
2023-02-07T21:38:38.265Z,103346.00
2023-02-07T21:41:07.103Z,103339.91
2023-02-07T21:43:35.461Z,103352.94
2023-02-07T21:46:08.056Z,103356.41
2023-02-07T21:48:36.688Z,103364.25
2023-02-07T21:51:06.305Z,103356.38
2023-02-07T21:53:34.700Z,103356.38
2023-02-07T21:56:02.997Z,103351.16
2023-02-07T21:58:31.268Z,103349.41
2023-02-07T22:01:07.786Z,103346.81
2023-02-07T22:03:36.139Z,103352.91
2023-02-07T22:06:04.174Z,103352.00
2023-02-07T22:08:32.729Z,103349.41
2023-02-07T22:11:04.290Z,103349.41
2023-02-07T22:13:32.698Z,103351.13
2023-02-07T22:16:00.845Z,103347.66
2023-02-07T22:18:30.052Z,103343.31
2023-02-07T22:21:04.720Z,103340.66
2023-02-07T22:23:34.800Z,103350.22
2023-02-07T22:26:02.874Z,103349.38
2023-02-07T22:28:30.807Z,103344.13
2023-02-07T22:31:00.628Z,103343.25
2023-02-07T22:33:29.799Z,103345.81
2023-02-07T22:35:57.746Z,103347.56
2023-02-07T22:38:25.494Z,103349.31
2023-02-07T22:40:53.167Z,103348.41
2023-02-07T22:43:20.924Z,103335.34
2023-02-07T22:45:48.561Z,103337.97
2023-02-07T22:48:17.344Z,103339.69
2023-02-07T22:50:46.263Z,103343.16
2023-02-07T22:53:15.591Z,103343.16
2023-02-07T22:55:43.181Z,103338.78
2023-02-07T22:58:15.199Z,103339.63
2023-02-07T23:00:43.010Z,103341.34
2023-02-07T23:03:11.285Z,103346.56
2023-02-07T23:05:40.064Z,103342.22
2023-02-07T23:08:09.950Z,103345.66
2023-02-07T23:10:38.162Z,103343.03
2023-02-07T23:13:07.827Z,103344.78
2023-02-07T23:15:46.348Z,103345.63
2023-02-07T23:18:15.870Z,103347.34
2023-02-07T23:20:45.188Z,103343.88
2023-02-07T23:23:14.488Z,103349.06
2023-02-07T23:25:44.878Z,103349.91
2023-02-07T23:28:14.571Z,103349.88
2023-02-07T23:30:42.979Z,103345.53
2023-02-07T23:33:12.817Z,103351.59
2023-02-07T23:35:44.150Z,103364.59
2023-02-07T23:38:11.830Z,103355.91
2023-02-07T23:40:41.053Z,103359.38
2023-02-07T23:43:08.961Z,103360.22
2023-02-07T23:45:36.618Z,103356.72
2023-02-07T23:48:06.630Z,103345.44
2023-02-07T23:50:34.476Z,103352.38
2023-02-07T23:53:02.584Z,103351.50
2023-02-07T23:55:31.731Z,103352.34
2023-02-07T23:58:00.744Z,103347.13
